Time;durP1;ratioP1;P1;durP2;ratioP2;P2;SDS_P1;SDS_P2;PMS_P1;PMS_P2;Temp;Humidity;BMP_temperature;BMP_pressure;BME280_temperature;BME280_humidity;BME280_pressure;Samples;Min_cycle;Max_cycle;Signal;HPM_P1;HPM_P2
2022/07/08 10:39:29;;;;;;;2.65;1.23;;;;;;;31.70;23.89;101735.31;5106440;27;20353;-72
2022/07/08 10:42:05;;;;;;;3.70;1.10;;;;;;;32.40;23.62;101732.81;5096928;28;20412;-73
2022/07/08 10:44:43;;;;;;;3.95;1.02;;;;;;;32.59;22.75;101732.09;5100695;28;20413;-72
2022/07/08 10:47:09;;;;;;;4.80;1.40;;;;;;;33.07;22.34;101742.06;5108019;28;20392;-72
2022/07/08 10:49:44;;;;;;;4.05;0.90;;;;;;;33.69;21.65;101725.00;5094555;28;20454;-72
2022/07/08 10:52:09;;;;;;;2.72;1.05;;;;;;;34.14;21.47;101734.72;5107903;28;20393;-72
2022/07/08 10:54:37;;;;;;;2.42;0.90;;;;;;;34.47;20.73;101734.09;5106236;28;20453;-71
2022/07/08 10:57:07;;;;;;;3.57;0.90;;;;;;;34.35;20.77;101735.91;5105168;28;20385;-71
2022/07/08 10:59:37;;;;;;;4.68;0.98;;;;;;;34.47;20.29;101732.09;5092897;28;20409;-70
2022/07/08 11:02:09;;;;;;;2.67;0.85;;;;;;;34.49;20.17;101740.97;5106551;28;20438;-70
2022/07/08 11:04:34;;;;;;;2.10;0.90;;;;;;;34.70;20.00;101740.53;5096905;28;20508;-69
2022/07/08 11:07:14;;;;;;;2.40;0.90;;;;;;;35.12;19.58;101735.56;5088576;28;20399;-70
2022/07/08 11:09:41;;;;;;;3.25;1.33;;;;;;;35.45;19.59;101732.00;5073679;28;20414;-70
2022/07/08 11:12:25;;;;;;;5.35;1.08;;;;;;;35.67;19.09;101733.06;5078621;28;20413;-70
2022/07/08 11:14:52;;;;;;;2.40;0.68;;;;;;;35.97;18.91;101744.28;5087896;28;20397;-71
2022/07/08 11:17:30;;;;;;;3.17;0.80;;;;;;;35.78;18.96;101743.31;5098749;28;20405;-71
2022/07/08 11:19:58;;;;;;;3.05;0.90;;;;;;;36.03;18.70;101735.09;5090899;28;20428;-71
2022/07/08 11:22:24;;;;;;;1.42;0.80;;;;;;;36.22;18.71;101739.75;5089285;28;20401;-71
2022/07/08 11:24:50;;;;;;;1.52;0.82;;;;;;;36.30;18.41;101733.78;5093212;28;20406;-71
2022/07/08 11:27:16;;;;;;;2.40;1.10;;;;;;;36.50;18.18;101733.53;5101361;28;20918;-71
2022/07/08 11:29:49;;;;;;;3.10;1.02;;;;;;;36.95;18.21;101729.47;5098299;28;20392;-71
2022/07/08 11:32:16;;;;;;;2.42;1.02;;;;;;;36.94;17.54;101742.78;5103868;28;20448;-71
2022/07/08 11:34:42;;;;;;;4.97;1.05;;;;;;;36.72;17.87;101736.16;5093451;28;20821;-71
2022/07/08 11:37:07;;;;;;;3.88;1.08;;;;;;;36.83;18.49;101730.59;5102060;28;20484;-71
2022/07/08 11:39:33;;;;;;;0.93;0.60;;;;;;;37.11;17.90;101733.63;5113028;28;20552;-71
2022/07/08 11:41:58;;;;;;;2.97;1.10;;;;;;;36.98;17.67;101737.16;5113546;28;20401;-73
2022/07/08 11:44:26;;;;;;;3.17;0.82;;;;;;;37.00;17.33;101729.09;5109090;28;20467;-72
2022/07/08 11:46:53;;;;;;;2.50;0.83;;;;;;;37.19;16.82;101723.97;5124709;28;20750;-72
2022/07/08 11:49:19;;;;;;;4.25;1.00;;;;;;;37.29;17.05;101716.75;5101502;28;20409;-72
2022/07/08 11:51:48;;;;;;;1.97;0.70;;;;;;;37.34;16.88;101720.03;5094977;28;20908;-72
2022/07/08 11:54:20;;;;;;;1.75;0.70;;;;;;;37.00;16.86;101712.97;5088108;28;20404;-72
2022/07/08 11:56:45;;;;;;;2.47;0.88;;;;;;;36.74;17.29;101719.66;5094256;28;20415;-71
2022/07/08 11:59:12;;;;;;;2.67;0.80;;;;;;;36.88;17.08;101714.06;5101549;28;20404;-72
2022/07/08 12:01:38;;;;;;;2.53;0.93;;;;;;;36.95;16.87;101707.69;5099430;28;20405;-73
2022/07/08 12:04:05;;;;;;;1.60;0.73;;;;;;;37.04;16.79;101708.16;5097031;28;20485;-72
2022/07/08 12:06:31;;;;;;;2.90;0.80;;;;;;;36.67;17.18;101713.13;5108169;28;20387;-72
2022/07/08 12:08:57;;;;;;;2.57;1.03;;;;;;;36.48;17.69;101710.53;5113792;28;20384;-72
2022/07/08 12:11:25;;;;;;;2.33;0.70;;;;;;;36.58;17.21;101704.19;5097992;28;20409;-72
2022/07/08 12:13:51;;;;;;;2.40;0.90;;;;;;;36.18;17.67;101699.38;5092444;28;20398;-72
2022/07/08 12:16:31;;;;;;;1.05;0.70;;;;;;;36.52;17.64;101697.25;5107380;28;20488;-72
2022/07/08 12:18:57;;;;;;;2.55;0.90;;;;;;;36.58;17.69;101705.00;5093894;28;20413;-72
2022/07/08 12:21:22;;;;;;;1.35;0.80;;;;;;;36.67;17.35;101699.81;5095985;28;20412;-71
2022/07/08 12:23:58;;;;;;;3.55;0.90;;;;;;;36.42;17.50;101695.97;5079602;28;20416;-72
2022/07/08 12:26:24;;;;;;;2.05;0.98;;;;;;;36.13;18.13;101689.25;5106071;28;20569;-71
2022/07/08 12:28:49;;;;;;;2.23;0.80;;;;;;;36.08;18.25;101688.81;5105002;28;20423;-72
2022/07/08 12:31:36;;;;;;;4.00;0.77;;;;;;;35.91;18.00;101682.59;5111815;28;20384;-72
2022/07/08 12:34:06;;;;;;;7.20;1.00;;;;;;;36.04;17.60;101673.81;5091977;28;20878;-72
2022/07/08 12:36:32;;;;;;;2.53;1.10;;;;;;;36.16;18.24;101688.47;5091685;28;20408;-72
2022/07/08 12:39:09;;;;;;;3.55;0.85;;;;;;;36.27;17.90;101678.09;5086495;28;20418;-71
2022/07/08 12:41:34;;;;;;;2.72;1.00;;;;;;;36.40;17.98;101682.25;5096565;28;20434;-72
2022/07/08 12:44:30;;;;;;;1.33;0.80;;;;;;;36.23;17.44;101679.25;5082223;28;20490;-72
2022/07/08 12:46:56;;;;;;;2.47;0.95;;;;;;;36.22;18.01;101672.03;5104862;28;20393;-72
2022/07/08 12:49:25;;;;;;;3.25;0.82;;;;;;;35.97;17.91;101668.94;5088678;28;20462;-78
2022/07/08 12:51:51;;;;;;;3.55;0.82;;;;;;;36.20;18.19;101666.75;5094936;28;20394;-71
2022/07/08 12:54:17;;;;;;;2.25;0.90;;;;;;;36.17;17.32;101658.25;5099095;28;20455;-71
2022/07/08 12:56:43;;;;;;;1.87;0.70;;;;;;;36.17;18.18;101663.91;5094370;28;20438;-71
2022/07/08 12:59:08;;;;;;;1.70;0.77;;;;;;;36.30;18.03;101660.38;5092634;28;20475;-71
2022/07/08 13:01:35;;;;;;;2.47;0.98;;;;;;;36.00;17.79;101665.31;5089455;28;20406;-72
2022/07/08 13:04:00;;;;;;;2.50;0.80;;;;;;;35.82;18.04;101650.25;5104534;27;20433;-72
2022/07/08 13:06:26;;;;;;;2.13;0.90;;;;;;;35.65;18.46;101659.34;5065325;28;20438;-75
2022/07/08 13:08:52;;;;;;;1.27;0.80;;;;;;;35.67;18.46;101656.94;5076388;28;20815;-72
2022/07/08 13:11:17;;;;;;;3.20;0.80;;;;;;;35.79;18.25;101651.84;5090600;27;20410;-72
2022/07/08 13:13:42;;;;;;;4.77;1.37;;;;;;;35.92;18.63;101652.38;5068108;28;20533;-72
2022/07/08 13:16:08;;;;;;;1.98;0.50;;;;;;;35.74;17.97;101652.19;5080584;28;20994;-72
2022/07/08 13:18:33;;;;;;;2.30;0.73;;;;;;;35.28;18.43;101645.19;5099592;28;20515;-72
2022/07/08 13:20:58;;;;;;;1.70;0.80;;;;;;;34.74;18.66;101640.88;5093030;28;20440;-74
2022/07/08 13:23:23;;;;;;;4.80;1.20;;;;;;;34.97;18.75;101642.78;5099011;28;20413;-74
2022/07/08 13:25:51;;;;;;;3.63;0.60;;;;;;;34.76;19.20;101643.28;5105581;28;20744;-75
2022/07/08 13:28:17;;;;;;;3.00;0.73;;;;;;;34.58;19.55;101631.72;5100630;28;20417;-73
2022/07/08 13:30:42;;;;;;;2.17;0.80;;;;;;;34.38;19.69;101636.66;5097327;28;20762;-73
2022/07/08 13:33:07;;;;;;;2.97;0.87;;;;;;;34.31;19.66;101630.13;5097989;28;20754;-73
2022/07/08 13:35:33;;;;;;;5.40;1.00;;;;;;;33.99;20.10;101628.75;5098476;28;20412;-73
2022/07/08 13:37:58;;;;;;;2.20;0.90;;;;;;;33.61;20.47;101632.47;5093748;28;20869;-72
2022/07/08 13:40:23;;;;;;;2.90;0.80;;;;;;;33.57;20.48;101632.38;5081440;28;20409;-73
2022/07/08 13:42:49;;;;;;;4.83;1.00;;;;;;;33.38;20.46;101636.03;5111913;28;20391;-72
2022/07/08 13:45:14;;;;;;;1.60;0.50;;;;;;;33.19;20.66;101641.66;5093008;28;20396;-72
2022/07/08 13:47:39;;;;;;;2.33;0.90;;;;;;;33.26;20.63;101641.00;5080182;28;20410;-72
2022/07/08 13:50:06;;;;;;;1.73;0.70;;;;;;;33.00;21.03;101638.81;5108663;28;20387;-73
2022/07/08 13:52:31;;;;;;;4.30;1.00;;;;;;;32.61;21.45;101635.13;5100058;28;20472;-72
2022/07/08 13:54:56;;;;;;;2.70;0.85;;;;;;;32.51;21.67;101623.63;5090934;28;20396;-72
2022/07/08 13:57:22;;;;;;;1.47;0.70;;;;;;;32.38;22.07;101620.94;5085988;28;20399;-73
2022/07/08 13:59:47;;;;;;;2.70;0.80;;;;;;;32.44;21.41;101629.09;5088036;28;20439;-73
2022/07/08 14:02:12;;;;;;;2.10;0.90;;;;;;;32.39;21.77;101621.75;5077294;28;20380;-72
2022/07/08 14:04:37;;;;;;;1.90;0.80;;;;;;;32.54;21.88;101626.50;5088997;28;20413;-73
2022/07/08 14:07:03;;;;;;;3.90;0.87;;;;;;;32.51;21.87;101626.44;5092571;28;20419;-73
2022/07/08 14:09:28;;;;;;;2.03;0.70;;;;;;;32.53;21.67;101629.69;5085693;28;20409;-73
2022/07/08 14:11:53;;;;;;;2.45;0.80;;;;;;;32.56;21.61;101623.34;5093524;28;20393;-73
2022/07/08 14:14:19;;;;;;;2.07;0.80;;;;;;;32.65;21.87;101621.19;5099382;28;20401;-72
2022/07/08 14:16:44;;;;;;;2.20;0.67;;;;;;;32.67;22.00;101625.25;5091613;28;20459;-73
2022/07/08 14:19:09;;;;;;;4.17;0.77;;;;;;;32.40;21.97;101620.59;5087286;28;20447;-73
2022/07/08 14:21:35;;;;;;;3.73;0.77;;;;;;;32.20;22.48;101616.91;5078522;28;20415;-72
2022/07/08 14:24:00;;;;;;;4.03;1.00;;;;;;;32.28;22.04;101603.84;5082331;28;20737;-73
2022/07/08 14:26:25;;;;;;;4.17;3.77;;;;;;;32.39;22.33;101602.13;5111478;28;20396;-73
2022/07/08 14:28:50;;;;;;;6.83;1.00;;;;;;;32.70;21.82;101604.84;5111456;28;20870;-73
2022/07/08 14:31:16;;;;;;;2.83;0.60;;;;;;;32.73;21.33;101603.31;5086016;28;20820;-72
2022/07/08 14:33:41;;;;;;;1.60;0.80;;;;;;;32.63;21.78;101601.91;5107267;28;20400;-74
2022/07/08 14:36:06;;;;;;;2.97;0.60;;;;;;;32.98;21.25;101601.03;5111336;28;20809;-73
2022/07/08 14:38:32;;;;;;;1.43;0.60;;;;;;;33.07;21.02;101596.81;5111051;28;20974;-73
2022/07/08 14:40:57;;;;;;;2.87;0.80;;;;;;;33.23;20.68;101593.97;5111279;28;20411;-73
2022/07/08 14:43:22;;;;;;;2.73;1.10;;;;;;;33.37;20.45;101594.25;5103780;28;20407;-72
2022/07/08 14:45:49;;;;;;;3.10;1.00;;;;;;;33.36;20.78;101601.06;5077195;28;20443;-73
2022/07/08 14:48:15;;;;;;;3.25;0.60;;;;;;;33.43;20.84;101589.94;5108241;27;20427;-72
2022/07/08 14:50:40;;;;;;;1.77;0.50;;;;;;;33.33;20.64;101585.75;5093003;28;20391;-73
2022/07/08 14:53:05;;;;;;;1.50;0.73;;;;;;;33.15;20.81;101584.59;5096482;28;20413;-72
2022/07/08 14:55:31;;;;;;;2.10;0.60;;;;;;;32.93;21.39;101592.94;5111252;28;20385;-73
2022/07/08 14:57:57;;;;;;;0.63;0.50;;;;;;;33.16;21.09;101580.59;5092739;28;20842;-72
2022/07/08 15:00:23;;;;;;;3.95;0.90;;;;;;;33.27;21.03;101580.78;5110860;28;20807;-73
2022/07/08 15:02:49;;;;;;;2.00;0.80;;;;;;;33.16;21.14;101580.59;5083161;28;20972;-73
2022/07/08 15:05:14;;;;;;;2.63;0.80;;;;;;;33.10;21.36;101579.25;5098490;28;20481;-73
2022/07/08 15:07:39;;;;;;;2.30;0.60;;;;;;;33.10;21.33;101572.81;5111017;28;20380;-72
2022/07/08 15:10:05;;;;;;;2.43;0.80;;;;;;;33.01;21.39;101564.59;5111064;28;20392;-72
2022/07/08 15:12:30;;;;;;;1.97;0.70;;;;;;;32.94;21.22;101578.50;5110086;28;20743;-72
2022/07/08 15:14:55;;;;;;;3.60;0.80;;;;;;;32.54;21.53;101566.78;5126189;28;21004;-73
2022/07/08 15:17:21;;;;;;;4.10;0.70;;;;;;;32.52;21.83;101567.16;5084179;28;20419;-73
2022/07/08 15:19:46;;;;;;;1.50;0.50;;;;;;;32.56;21.78;101568.03;5091440;28;20491;-72
2022/07/08 15:22:11;;;;;;;4.07;1.00;;;;;;;32.52;21.87;101563.53;5083417;28;20405;-72
2022/07/08 15:24:36;;;;;;;23.50;2.63;;;;;;;32.51;21.51;101561.88;5095061;28;20500;-72
2022/07/08 15:27:02;;;;;;;2.27;0.80;;;;;;;32.32;21.66;101559.88;5086971;28;20402;-73
2022/07/08 15:29:27;;;;;;;2.60;0.93;;;;;;;32.31;22.00;101547.81;5086428;28;20395;-73
2022/07/08 15:31:52;;;;;;;1.50;0.57;;;;;;;32.28;21.99;101556.16;5113110;28;20383;-72
2022/07/08 15:34:18;;;;;;;2.42;0.85;;;;;;;31.71;22.16;101548.34;5101419;28;21004;-72
2022/07/08 15:36:43;;;;;;;4.03;0.90;;;;;;;31.48;22.86;101544.50;5112024;28;20387;-72
2022/07/08 15:39:09;;;;;;;4.63;1.20;;;;;;;31.45;22.76;101545.22;5101312;28;20428;-72
2022/07/08 15:41:34;;;;;;;3.13;0.87;;;;;;;31.46;22.64;101547.66;5114544;28;20372;-72
2022/07/08 15:43:59;;;;;;;2.73;1.00;;;;;;;31.26;23.01;101549.50;5113987;28;20462;-73
2022/07/08 15:46:24;;;;;;;3.10;0.97;;;;;;;31.12;22.92;101543.53;5091440;28;20493;-73
2022/07/08 15:48:50;;;;;;;1.27;0.40;;;;;;;31.08;23.44;101553.00;5089453;28;20408;-73
2022/07/08 15:51:15;;;;;;;29.47;3.10;;;;;;;31.13;23.25;101545.16;5087752;28;20400;-73
2022/07/08 15:53:40;;;;;;;1.30;0.87;;;;;;;30.99;23.69;101536.34;5096975;28;20401;-72
2022/07/08 15:56:06;;;;;;;1.17;0.40;;;;;;;30.83;23.86;101536.28;5097615;28;20773;-72
2022/07/08 15:58:31;;;;;;;4.53;0.93;;;;;;;30.79;23.61;101529.75;5114677;28;20415;-73
2022/07/08 16:00:57;;;;;;;3.10;0.80;;;;;;;30.70;23.82;101528.28;5114074;28;20462;-72
2022/07/08 16:03:22;;;;;;;2.38;0.90;;;;;;;30.47;23.96;101536.38;5094682;28;20535;-72
2022/07/08 16:05:47;;;;;;;2.00;0.83;;;;;;;30.24;24.24;101530.47;5091219;28;20954;-72
2022/07/08 16:08:13;;;;;;;2.10;0.60;;;;;;;29.91;24.88;101532.59;5114061;28;20959;-72
2022/07/08 16:10:38;;;;;;;4.47;1.17;;;;;;;29.87;24.61;101531.63;5114283;28;20424;-72
2022/07/08 16:13:03;;;;;;;4.23;0.67;;;;;;;29.84;24.60;101524.78;5094134;28;20433;-72
2022/07/08 16:15:29;;;;;;;1.43;0.50;;;;;;;29.79;24.73;101518.59;5106510;28;20412;-72
2022/07/08 16:17:54;;;;;;;1.97;0.50;;;;;;;29.74;25.06;101516.00;5106661;28;20931;-73
2022/07/08 16:20:20;;;;;;;5.53;0.90;;;;;;;29.72;25.02;101527.53;5088648;28;21049;-72
2022/07/08 16:22:45;;;;;;;3.57;0.97;;;;;;;29.60;25.10;101521.13;5104848;28;20922;-72
2022/07/08 16:25:10;;;;;;;11.37;2.17;;;;;;;29.49;24.99;101514.38;5113608;28;20391;-72
2022/07/08 16:27:35;;;;;;;4.13;1.10;;;;;;;29.23;25.24;101526.63;5088864;28;20498;-72
2022/07/08 16:30:01;;;;;;;3.57;1.13;;;;;;;29.04;25.60;101523.53;5108226;28;20740;-72
2022/07/08 16:32:26;;;;;;;2.30;0.53;;;;;;;28.75;26.14;101526.41;5102114;28;20483;-73
2022/07/08 16:34:51;;;;;;;270.90;21.83;;;;;;;28.71;25.87;101520.75;5101359;28;20874;-72
2022/07/08 16:37:16;;;;;;;5.37;1.33;;;;;;;28.56;26.10;101517.69;5112372;28;20400;-73
2022/07/08 16:39:42;;;;;;;7.13;1.47;;;;;;;28.49;26.29;101515.44;5107904;28;20392;-72
2022/07/08 16:42:07;;;;;;;5.88;1.00;;;;;;;28.43;26.40;101504.84;5091514;28;20477;-72
2022/07/08 16:44:32;;;;;;;1.83;0.60;;;;;;;28.36;26.76;101516.53;5094782;28;20943;-72
2022/07/08 16:46:58;;;;;;;2.97;0.65;;;;;;;28.22;26.60;101511.22;5095233;28;20396;-72
2022/07/08 16:49:23;;;;;;;2.30;0.77;;;;;;;28.21;26.25;101509.59;5105182;28;20411;-72
2022/07/08 16:51:49;;;;;;;9.60;2.30;;;;;;;28.10;26.37;101516.72;5113174;28;20461;-73
2022/07/08 16:54:14;;;;;;;3.40;1.10;;;;;;;27.98;26.46;101510.22;5113233;28;20713;-73
2022/07/08 16:56:42;;;;;;;2.23;0.80;;;;;;;27.91;26.68;101505.16;5112933;28;20387;-72
2022/07/08 16:59:09;;;;;;;5.22;1.20;;;;;;;27.76;26.77;101514.91;5112213;28;20402;-72
2022/07/08 17:01:34;;;;;;;6.07;1.20;;;;;;;27.68;27.01;101514.94;5107227;28;20413;-72
2022/07/08 17:03:59;;;;;;;4.27;1.40;;;;;;;27.63;27.04;101510.38;5075370;28;20479;-72
2022/07/08 17:06:25;;;;;;;3.93;0.57;;;;;;;27.65;26.52;101518.41;5107213;28;20890;-72
2022/07/08 17:08:50;;;;;;;3.30;0.73;;;;;;;27.61;26.95;101515.47;5073713;28;20415;-72
2022/07/08 17:11:16;;;;;;;3.10;0.77;;;;;;;27.54;27.02;101515.16;5085268;28;20408;-72
2022/07/08 17:13:41;;;;;;;3.73;0.93;;;;;;;27.42;27.15;101515.03;5112733;28;20429;-72
2022/07/08 17:16:07;;;;;;;2.73;1.00;;;;;;;27.34;27.31;101513.06;5092260;28;20423;-73
2022/07/08 17:18:32;;;;;;;2.42;0.90;;;;;;;27.36;27.52;101510.78;5099085;28;20419;-72
2022/07/08 17:20:58;;;;;;;2.35;1.50;;;;;;;27.33;27.43;101512.25;5103089;28;20380;-72
2022/07/08 17:23:24;;;;;;;3.50;1.00;;;;;;;27.20;27.56;101523.59;5090512;28;20449;-72
2022/07/08 17:25:55;;;;;;;2.57;0.97;;;;;;;27.07;27.74;101517.06;5094286;28;20879;-72
2022/07/08 17:28:20;;;;;;;2.90;0.60;;;;;;;27.04;27.68;101514.94;5111680;28;20447;-72
2022/07/08 17:30:46;;;;;;;3.70;1.00;;;;;;;26.91;27.63;101510.38;5109081;28;20887;-72
2022/07/08 17:33:13;;;;;;;2.47;1.13;;;;;;;26.80;27.99;101511.84;5103726;28;20938;-73
2022/07/08 17:35:38;;;;;;;4.78;0.93;;;;;;;26.75;28.23;101521.16;5107499;28;20401;-72
